Time;durP1;ratioP1;P1;durP2;ratioP2;P2;SDS_P1;SDS_P2;PMS_P1;PMS_P2;Temp;Humidity;BMP_temperature;BMP_pressure;BME280_temperature;BME280_humidity;BME280_pressure;Samples;Min_cycle;Max_cycle;Signal;HPM_P1;HPM_P2
2023/11/03 00:12:07;;;;;;;12.80;6.80;;;;;;;13.93;82.53;98145.94;680141;1262;138818;-82
2023/11/03 00:27:11;;;;;;;8.40;5.60;;;;;;;13.91;83.13;98131.40;681015;1260;140256;-82
2023/11/03 00:42:14;;;;;;;8.90;4.90;;;;;;;13.84;83.48;98107.71;672188;1265;139175;-82
2023/11/03 00:57:18;;;;;;;16.20;8.20;;;;;;;13.84;84.09;98089.61;681697;1262;137756;-81
2023/11/03 01:12:22;;;;;;;10.20;5.60;;;;;;;13.79;84.70;98057.09;669564;1275;139160;-81
2023/11/03 01:27:26;;;;;;;11.70;6.00;;;;;;;13.78;84.87;98023.54;673842;1263;140099;-82
2023/11/03 01:42:30;;;;;;;10.40;5.00;;;;;;;13.65;85.66;98030.16;680959;1269;140129;-83
2023/11/03 01:57:34;;;;;;;8.70;5.30;;;;;;;13.73;85.81;98045.29;674164;1272;140310;-82
2023/11/03 02:12:37;;;;;;;7.80;5.20;;;;;;;13.94;84.78;98010.91;679917;1273;139225;-80
2023/11/03 02:27:41;;;;;;;9.30;5.30;;;;;;;13.91;84.65;97968.00;678816;1262;138762;-83
2023/11/03 02:42:44;;;;;;;11.00;6.00;;;;;;;13.93;85.18;97988.09;677359;1264;138480;-82
2023/11/03 02:57:48;;;;;;;8.80;5.40;;;;;;;13.95;86.46;98003.13;676619;1259;140268;-83
2023/11/03 03:12:51;;;;;;;8.40;5.70;;;;;;;13.75;90.00;97989.17;675223;1272;138509;-80
2023/11/03 03:27:55;;;;;;;10.70;5.30;;;;;;;13.46;93.31;97963.08;677735;1264;139223;-82
2023/11/03 03:43:02;;;;;;;11.30;6.20;;;;;;;13.20;97.28;97947.96;680604;1264;139413;-81
2023/11/03 03:58:05;;;;;;;19.00;6.50;;;;;;;13.12;99.07;97925.27;673896;1263;139269;-82
2023/11/03 04:13:09;;;;;;;12.40;6.50;;;;;;;12.84;100.00;97910.33;679556;1263;140734;-81
2023/11/03 04:28:12;;;;;;;10.40;6.00;;;;;;;13.03;100.00;97887.01;677609;1264;140464;-81
2023/11/03 04:43:16;;;;;;;10.50;6.50;;;;;;;13.09;100.00;97866.73;677390;1264;139821;-81
2023/11/03 04:58:20;;;;;;;8.90;6.00;;;;;;;13.00;100.00;97854.67;677882;1264;139855;-82
2023/11/03 05:13:23;;;;;;;7.70;5.80;;;;;;;12.97;100.00;97862.59;681820;1264;141153;-81
2023/11/03 05:38:05;;;;;;;15.00;8.10;;;;;;;12.79;100.00;97868.45;653455;1301;545809;-80
2023/11/03 05:53:09;;;;;;;14.50;9.00;;;;;;;12.53;100.00;97849.23;676488;1285;139530;-80
2023/11/03 06:08:12;;;;;;;23.10;12.90;;;;;;;12.48;100.00;97842.02;667116;1276;139679;-80
2023/11/03 06:23:16;;;;;;;18.90;8.70;;;;;;;12.48;100.00;97839.86;673363;1274;139152;-84
2023/11/03 06:38:19;;;;;;;15.10;7.60;;;;;;;12.34;100.00;97833.27;668152;1274;139374;-83
2023/11/03 06:53:24;;;;;;;26.30;11.80;;;;;;;12.43;100.00;97854.20;666952;1287;139506;-82
2023/11/03 07:08:28;;;;;;;50.80;15.50;;;;;;;12.57;100.00;97832.76;672101;1287;139568;-85
2023/11/03 07:23:31;;;;;;;24.50;9.30;;;;;;;12.56;100.00;97821.43;668227;1285;139532;-82
2023/11/03 07:38:35;;;;;;;32.90;14.60;;;;;;;12.76;100.00;97826.50;665152;1285;139184;-83
2023/11/03 07:53:39;;;;;;;16.00;6.00;;;;;;;12.73;100.00;97851.55;670954;1276;138661;-82
2023/11/03 08:08:42;;;;;;;26.60;9.90;;;;;;;12.78;100.00;97843.39;668292;1276;139204;-82
2023/11/03 08:23:46;;;;;;;15.80;7.30;;;;;;;12.90;100.00;97844.19;664471;1277;139147;-84
2023/11/03 08:38:54;;;;;;;54.90;34.10;;;;;;;13.02;100.00;97852.92;668364;1276;139135;-85
2023/11/03 08:53:58;;;;;;;33.40;15.60;;;;;;;13.23;100.00;97854.11;664673;1286;139303;-84
2023/11/03 09:09:04;;;;;;;54.50;25.70;;;;;;;13.33;100.00;97843.98;670334;1263;139676;-85
2023/11/03 09:24:08;;;;;;;64.00;30.10;;;;;;;13.26;100.00;97848.14;670894;1275;139433;-84
2023/11/03 09:39:14;;;;;;;58.60;29.20;;;;;;;13.16;100.00;97843.09;667961;1263;139994;-83
2023/11/03 09:54:21;;;;;;;40.00;19.50;;;;;;;13.22;100.00;97821.52;671931;1265;142064;-82
2023/11/03 10:09:26;;;;;;;124.80;69.50;;;;;;;13.12;100.00;97812.94;670025;1267;140210;-82
2023/11/03 10:24:29;;;;;;;129.70;44.90;;;;;;;13.21;100.00;97803.42;673811;1264;139417;-82
2023/11/03 10:39:32;;;;;;;60.20;23.70;;;;;;;13.35;100.00;97797.63;668458;1266;140095;-83
2023/11/03 10:54:59;;;;;;;70.30;25.00;;;;;;;13.50;100.00;97789.64;675201;1265;139119;-83
2023/11/03 11:10:03;;;;;;;89.00;40.30;;;;;;;13.75;99.98;97787.96;667534;1279;140443;-84
2023/11/03 11:25:10;;;;;;;185.40;52.40;;;;;;;13.84;99.76;97787.99;675081;1262;139731;-84
2023/11/03 11:40:13;;;;;;;164.70;48.80;;;;;;;13.92;99.35;97769.23;671177;1267;139177;-86
2023/11/03 11:55:19;;;;;;;117.30;45.40;;;;;;;14.12;98.71;97750.82;676318;1265;140725;-84
2023/11/03 12:23:07;;;;;;;59.30;22.50;;;;;;;14.28;98.91;97726.70;654731;1308;545913;-84
2023/11/03 12:38:15;;;;;;;78.40;35.30;;;;;;;14.25;98.77;97710.16;672870;1281;139686;-84
2023/11/03 12:53:19;;;;;;;27.50;15.80;;;;;;;14.17;99.49;97689.69;671744;1271;142080;-84
2023/11/03 13:08:23;;;;;;;59.80;22.10;;;;;;;14.12;99.49;97662.00;677448;1272;139527;-83
2023/11/03 13:23:27;;;;;;;29.40;12.90;;;;;;;14.06;99.42;97638.90;674229;1264;139028;-83
2023/11/03 13:38:30;;;;;;;113.60;56.10;;;;;;;14.11;99.00;97621.77;675501;1265;140376;-83
2023/11/03 13:53:35;;;;;;;89.20;38.50;;;;;;;14.07;98.74;97611.86;677292;1266;139119;-83
2023/11/03 14:08:38;;;;;;;41.20;20.20;;;;;;;14.01;98.78;97602.48;675359;1264;139009;-83
2023/11/03 14:23:43;;;;;;;49.20;26.90;;;;;;;13.91;98.26;97597.38;675124;1263;138498;-83
2023/11/03 14:38:50;;;;;;;218.10;89.30;;;;;;;13.95;97.91;97594.22;676715;1263;140618;-84
2023/11/03 14:53:53;;;;;;;135.60;39.40;;;;;;;13.94;97.53;97589.23;679176;1263;141624;-83
2023/11/03 15:08:58;;;;;;;161.70;71.70;;;;;;;13.89;97.90;97581.76;667897;1261;139731;-81
2023/11/03 15:24:02;;;;;;;89.90;32.50;;;;;;;13.56;99.72;97551.68;671445;1263;140094;-82
2023/11/03 15:39:20;;;;;;;160.90;44.10;;;;;;;13.57;99.94;97516.88;676557;1264;139454;-83
2023/11/03 15:54:27;;;;;;;82.60;28.40;;;;;;;13.45;100.00;97514.25;673993;1262;140102;-82
2023/11/03 16:09:33;;;;;;;47.60;21.70;;;;;;;13.39;100.00;97515.58;675276;1275;141146;-81
2023/11/03 16:24:39;;;;;;;52.10;20.80;;;;;;;13.31;100.00;97518.38;675247;1260;139413;-81
2023/11/03 16:39:45;;;;;;;35.30;18.40;;;;;;;13.24;100.00;97493.80;675436;1264;139811;-81
2023/11/03 16:54:49;;;;;;;57.60;30.40;;;;;;;13.20;100.00;97460.61;672681;1264;139551;-81
2023/11/03 17:09:53;;;;;;;59.10;29.30;;;;;;;13.20;100.00;97436.77;675801;1260;139669;-81
2023/11/03 17:24:58;;;;;;;56.30;24.70;;;;;;;13.26;100.00;97406.31;672296;1260;139881;-81
2023/11/03 17:40:03;;;;;;;53.40;27.60;;;;;;;13.43;100.00;97390.71;672755;1263;139501;-81
2023/11/03 17:55:09;;;;;;;71.30;35.40;;;;;;;13.64;100.00;97371.99;674639;1261;138934;-82
2023/11/03 18:10:12;;;;;;;71.20;31.20;;;;;;;13.69;100.00;97349.79;673168;1264;139903;-81
2023/11/03 18:25:19;;;;;;;28.60;16.00;;;;;;;13.71;100.00;97331.88;674355;1261;139275;-81
2023/11/03 18:40:25;;;;;;;29.30;17.10;;;;;;;14.02;100.00;97319.61;677694;1260;139242;-82
2023/11/03 18:55:29;;;;;;;42.30;23.10;;;;;;;14.20;100.00;97299.55;677938;1261;139845;-81
2023/11/03 19:10:54;;;;;;;27.40;16.60;;;;;;;14.39;100.00;97300.69;675317;1263;139726;-82
2023/11/03 19:25:57;;;;;;;47.80;21.20;;;;;;;14.47;100.00;97289.06;671814;1276;139472;-83
2023/11/03 19:41:01;;;;;;;146.90;64.20;;;;;;;14.77;100.00;97277.55;672902;1264;139234;-83
2023/11/03 19:56:07;;;;;;;50.80;26.40;;;;;;;14.94;100.00;97263.98;668708;1264;139358;-83
2023/11/03 20:11:12;;;;;;;89.10;52.60;;;;;;;14.95;100.00;97253.58;670999;1260;138828;-82
2023/11/03 20:26:21;;;;;;;32.60;22.00;;;;;;;15.01;100.00;97243.08;670375;1260;138929;-82
2023/11/03 20:41:25;;;;;;;35.50;23.30;;;;;;;15.07;100.00;97209.23;673923;1262;138576;-83
2023/11/03 20:56:30;;;;;;;94.40;45.60;;;;;;;15.26;100.00;97199.70;675242;1260;139101;-83
2023/11/03 21:11:34;;;;;;;28.70;16.20;;;;;;;15.19;100.00;97179.91;678854;1258;140670;-83
2023/11/03 21:26:37;;;;;;;21.00;13.10;;;;;;;15.15;100.00;97156.45;673251;1265;140793;-85
2023/11/03 21:41:45;;;;;;;20.40;13.00;;;;;;;15.04;100.00;97137.33;673755;1261;138773;-85
2023/11/03 21:56:49;;;;;;;17.20;11.70;;;;;;;15.05;100.00;97124.51;675143;1257;140334;-89
2023/11/03 22:11:52;;;;;;;16.50;10.50;;;;;;;14.99;100.00;97108.33;672537;1261;139041;-85
2023/11/03 22:26:56;;;;;;;13.00;8.20;;;;;;;14.85;100.00;97093.75;674422;1261;139705;-86
2023/11/03 22:41:59;;;;;;;10.60;7.50;;;;;;;14.75;100.00;97080.63;674521;1257;138814;-86
2023/11/03 22:57:03;;;;;;;12.30;8.30;;;;;;;14.70;100.00;97066.77;676247;1260;139263;-87
2023/11/03 23:12:07;;;;;;;11.40;7.90;;;;;;;14.46;100.00;97044.05;676563;1274;139209;-87
2023/11/03 23:27:10;;;;;;;9.10;6.40;;;;;;;14.27;100.00;97031.19;673963;1269;140293;-87
2023/11/03 23:42:14;;;;;;;11.80;7.70;;;;;;;14.09;100.00;97031.80;674147;1261;138746;-90
2023/11/03 23:57:17;;;;;;;14.10;9.90;;;;;;;13.96;100.00;97028.39;672580;1260;138900;-88
